createdAt,value
2023-05-21T00:01:35.885Z,4.22
2023-05-21T00:04:03.484Z,3.97
2023-05-21T00:06:30.362Z,3.97
2023-05-21T00:08:56.981Z,3.63
2023-05-21T00:11:24.101Z,4.80
2023-05-21T00:13:50.597Z,3.72
2023-05-21T00:16:17.066Z,4.35
2023-05-21T00:18:44.898Z,3.67
2023-05-21T00:21:12.290Z,3.63
2023-05-21T00:23:39.778Z,3.38
2023-05-21T00:26:06.487Z,3.10
2023-05-21T00:28:32.902Z,3.38
2023-05-21T00:30:59.348Z,3.47
2023-05-21T00:33:29.315Z,2.80
2023-05-21T00:35:56.826Z,2.40
2023-05-21T00:38:23.658Z,2.50
2023-05-21T00:40:50.714Z,2.40
2023-05-21T00:43:17.166Z,1.85
2023-05-21T00:45:47.567Z,2.40
2023-05-21T00:48:14.809Z,2.38
2023-05-21T00:50:41.740Z,2.38
2023-05-21T00:53:11.138Z,2.95
2023-05-21T00:55:38.224Z,2.70
2023-05-21T00:58:05.169Z,2.30
2023-05-21T01:00:35.100Z,2.55
2023-05-21T01:03:02.065Z,2.53
2023-05-21T01:05:29.006Z,2.30
2023-05-21T01:07:56.818Z,2.53
2023-05-21T01:10:23.482Z,2.40
2023-05-21T01:12:50.655Z,2.55
2023-05-21T01:15:17.261Z,2.30
2023-05-21T01:17:45.996Z,2.70
2023-05-21T01:20:12.765Z,2.75
2023-05-21T01:22:42.338Z,2.17
2023-05-21T01:25:09.116Z,2.58
2023-05-21T01:27:35.795Z,1.95
2023-05-21T01:30:02.336Z,1.98
2023-05-21T01:32:31.554Z,1.70
2023-05-21T01:35:04.499Z,2.10
2023-05-21T01:38:07.521Z,2.20
2023-05-21T01:40:38.297Z,2.38
2023-05-21T01:43:05.814Z,2.15
2023-05-21T01:45:32.497Z,2.15
2023-05-21T01:47:59.219Z,2.33
2023-05-21T01:50:25.821Z,2.40
2023-05-21T01:52:53.222Z,1.83
2023-05-21T01:55:24.521Z,1.90
2023-05-21T01:57:53.413Z,2.28
2023-05-21T02:00:21.064Z,2.30
2023-05-21T02:02:47.737Z,2.50
2023-05-21T02:05:14.374Z,1.98
2023-05-21T02:07:41.075Z,2.05
2023-05-21T02:10:07.838Z,1.92
2023-05-21T02:12:34.300Z,2.03
2023-05-21T02:15:00.813Z,2.92
2023-05-21T02:17:30.513Z,2.17
2023-05-21T02:19:57.401Z,2.80
2023-05-21T02:22:23.832Z,1.92
2023-05-21T02:24:50.286Z,1.98
2023-05-21T02:27:17.726Z,2.30
2023-05-21T02:29:44.216Z,1.88
2023-05-21T02:32:11.716Z,1.98
2023-05-21T02:34:42.290Z,2.65
2023-05-21T02:37:09.750Z,2.47
2023-05-21T02:39:36.197Z,2.70
2023-05-21T02:42:02.710Z,2.33
2023-05-21T02:44:29.208Z,2.30
2023-05-21T02:46:55.603Z,2.40
2023-05-21T02:49:22.129Z,2.17
2023-05-21T02:51:48.596Z,2.10
2023-05-21T02:54:15.243Z,2.58
2023-05-21T02:56:41.698Z,2.80
2023-05-21T02:59:08.160Z,2.40
2023-05-21T03:01:34.775Z,2.95
2023-05-21T03:04:01.217Z,2.65
2023-05-21T03:06:27.676Z,2.50
2023-05-21T03:08:54.165Z,2.45
2023-05-21T03:11:22.513Z,3.10
2023-05-21T03:13:49.054Z,2.58
2023-05-21T03:16:15.577Z,2.38
2023-05-21T03:18:43.327Z,2.63
2023-05-21T03:21:09.820Z,2.67
2023-05-21T03:23:36.270Z,3.05
2023-05-21T03:26:02.698Z,3.45
2023-05-21T03:28:29.139Z,2.33
2023-05-21T03:30:55.755Z,3.10
2023-05-21T03:33:22.300Z,2.72
2023-05-21T03:35:48.740Z,2.75
2023-05-21T03:38:15.204Z,2.90
2023-05-21T03:40:41.687Z,3.08
2023-05-21T03:43:08.104Z,2.65
2023-05-21T03:45:35.232Z,2.90
2023-05-21T03:48:02.129Z,2.83
2023-05-21T03:50:28.600Z,2.58
2023-05-21T03:52:55.021Z,2.95
2023-05-21T03:55:21.512Z,3.47
2023-05-21T03:57:48.042Z,2.40
2023-05-21T04:00:15.112Z,3.15
2023-05-21T04:02:41.593Z,2.50
2023-05-21T04:05:08.316Z,2.40
2023-05-21T04:07:34.894Z,2.08
2023-05-21T04:10:02.012Z,2.10
2023-05-21T04:12:28.481Z,2.22
2023-05-21T04:14:54.958Z,2.03
2023-05-21T04:17:21.694Z,2.17
2023-05-21T04:19:48.327Z,2.33
2023-05-21T04:22:14.841Z,2.20
2023-05-21T04:24:41.386Z,2.10
2023-05-21T04:27:09.925Z,1.80
2023-05-21T04:29:37.725Z,1.58
2023-05-21T04:32:04.713Z,1.90
2023-05-21T04:34:33.859Z,2.40
2023-05-21T04:37:02.151Z,1.85
2023-05-21T04:39:29.023Z,2.00
2023-05-21T04:41:57.826Z,1.65
2023-05-21T04:44:24.764Z,1.73
2023-05-21T04:46:52.568Z,1.80
2023-05-21T04:49:20.937Z,2.20
2023-05-21T04:51:47.402Z,1.70
2023-05-21T04:54:13.885Z,1.75
2023-05-21T04:56:40.320Z,1.80
2023-05-21T04:59:08.933Z,1.90
2023-05-21T05:01:35.699Z,1.80
2023-05-21T05:04:02.251Z,1.80
2023-05-21T05:06:28.815Z,1.85
2023-05-21T05:08:55.343Z,1.83
2023-05-21T05:11:22.357Z,2.03
2023-05-21T05:13:48.896Z,1.90
2023-05-21T05:16:20.971Z,1.70
2023-05-21T05:18:47.532Z,1.83
2023-05-21T05:21:13.988Z,1.83
2023-05-21T05:23:40.521Z,1.35
2023-05-21T05:26:07.007Z,1.73
2023-05-21T05:28:33.460Z,1.63
2023-05-21T05:31:00.012Z,2.05
2023-05-21T05:33:26.492Z,1.50
2023-05-21T05:35:53.124Z,1.60
2023-05-21T05:38:19.616Z,1.50
2023-05-21T05:40:46.138Z,1.48
2023-05-21T05:43:12.651Z,1.70
2023-05-21T05:45:39.414Z,1.23
2023-05-21T05:48:06.391Z,1.70
2023-05-21T05:50:32.895Z,1.90
2023-05-21T05:52:59.333Z,1.40
2023-05-21T05:55:26.776Z,1.50
2023-05-21T05:57:54.482Z,2.08
2023-05-21T06:00:20.983Z,1.23
2023-05-21T06:02:48.275Z,1.45
2023-05-21T06:05:15.060Z,1.70
2023-05-21T06:07:41.602Z,1.30
2023-05-21T06:10:08.354Z,1.70
2023-05-21T06:12:35.186Z,1.27
2023-05-21T06:15:01.900Z,1.23
2023-05-21T06:17:28.325Z,1.25
2023-05-21T06:19:54.880Z,2.30
2023-05-21T06:22:22.453Z,1.45
2023-05-21T06:24:50.180Z,1.20
2023-05-21T06:27:16.797Z,1.20
2023-05-21T06:29:43.264Z,1.77
2023-05-21T06:32:09.818Z,1.23
2023-05-21T06:34:36.295Z,1.33
2023-05-21T06:37:02.724Z,1.20
2023-05-21T06:39:29.189Z,1.42
2023-05-21T06:41:55.702Z,1.38
2023-05-21T06:44:23.025Z,2.17
2023-05-21T06:46:49.464Z,1.42
2023-05-21T06:49:16.270Z,1.35
2023-05-21T06:51:42.688Z,1.20
2023-05-21T06:54:09.160Z,1.30
2023-05-21T06:56:35.729Z,1.23
2023-05-21T06:59:02.202Z,1.77
2023-05-21T07:01:28.739Z,1.60
2023-05-21T07:03:55.265Z,1.20
2023-05-21T07:06:22.321Z,1.17
2023-05-21T07:08:49.884Z,1.25
2023-05-21T07:11:16.298Z,1.20
2023-05-21T07:13:42.827Z,1.45
2023-05-21T07:16:09.260Z,1.23
2023-05-21T07:18:35.768Z,1.67
2023-05-21T07:21:05.120Z,1.50
2023-05-21T07:23:31.643Z,1.38
2023-05-21T07:25:58.114Z,1.15
2023-05-21T07:28:24.604Z,1.30
2023-05-21T07:30:51.084Z,1.10
2023-05-21T07:33:19.700Z,1.63
2023-05-21T07:35:46.249Z,1.25
2023-05-21T07:38:15.501Z,1.25
2023-05-21T07:40:41.948Z,1.40
2023-05-21T07:43:08.410Z,1.40
2023-05-21T07:45:35.155Z,1.85
2023-05-21T07:48:01.863Z,1.70
2023-05-21T07:50:28.361Z,1.67
2023-05-21T07:52:54.927Z,1.77
2023-05-21T07:55:21.633Z,1.45
2023-05-21T07:57:48.048Z,1.30
2023-05-21T08:00:14.833Z,1.88
2023-05-21T08:02:41.517Z,1.60
2023-05-21T08:05:08.491Z,1.60
2023-05-21T08:07:35.036Z,1.30
2023-05-21T08:10:02.847Z,1.30
2023-05-21T08:12:29.531Z,1.40
2023-05-21T08:14:57.164Z,1.58
2023-05-21T08:17:23.647Z,1.63
2023-05-21T08:19:50.294Z,1.40
2023-05-21T08:22:16.727Z,1.73
2023-05-21T08:24:43.172Z,1.35
2023-05-21T08:27:10.235Z,1.80
2023-05-21T08:29:36.912Z,1.70
2023-05-21T08:32:03.583Z,1.75
2023-05-21T08:34:30.097Z,1.30
2023-05-21T08:36:56.516Z,1.63
2023-05-21T08:39:25.001Z,2.05
2023-05-21T08:41:55.146Z,1.45
2023-05-21T08:44:25.757Z,1.75
2023-05-21T08:46:54.275Z,1.67
2023-05-21T08:49:26.415Z,1.42
2023-05-21T08:51:53.815Z,2.50
2023-05-21T08:54:20.273Z,1.80
2023-05-21T08:56:49.305Z,1.50
2023-05-21T08:59:17.028Z,1.77
2023-05-21T09:01:43.983Z,1.80
2023-05-21T09:06:46.623Z,1.50
2023-05-21T09:09:27.633Z,1.63
2023-05-21T09:11:54.198Z,1.88
2023-05-21T09:14:21.488Z,1.50
2023-05-21T09:16:48.961Z,1.98
2023-05-21T09:19:15.646Z,1.33
2023-05-21T09:21:42.128Z,1.60
2023-05-21T09:24:09.563Z,2.00
2023-05-21T09:26:36.300Z,1.70
2023-05-21T09:29:02.778Z,1.60
2023-05-21T09:31:29.598Z,1.55
2023-05-21T09:33:56.242Z,1.80
2023-05-21T09:36:22.812Z,1.75
2023-05-21T09:38:50.248Z,2.15
2023-05-21T09:41:19.955Z,1.77
2023-05-21T09:43:48.292Z,1.73
2023-05-21T09:46:14.748Z,1.88
2023-05-21T09:48:42.153Z,1.80
2023-05-21T09:51:08.724Z,1.63
2023-05-21T09:53:35.142Z,1.90
2023-05-21T09:56:01.759Z,1.70
2023-05-21T09:58:28.198Z,2.03
2023-05-21T10:00:54.702Z,1.92
2023-05-21T10:03:23.397Z,2.40
2023-05-21T10:05:52.119Z,2.17
2023-05-21T10:08:19.274Z,1.90
2023-05-21T10:10:47.082Z,2.20
2023-05-21T10:13:14.881Z,2.00
2023-05-21T10:15:44.180Z,2.08
2023-05-21T10:18:12.441Z,2.30
2023-05-21T10:20:39.591Z,2.15
2023-05-21T10:23:06.243Z,1.65
2023-05-21T10:25:32.943Z,1.95
2023-05-21T10:27:59.393Z,1.88
2023-05-21T10:30:26.021Z,2.03
2023-05-21T10:32:53.958Z,2.10
2023-05-21T10:35:20.764Z,2.80
2023-05-21T10:37:47.302Z,2.17
2023-05-21T10:40:15.149Z,2.28
2023-05-21T10:42:44.587Z,2.30
2023-05-21T10:45:24.777Z,2.55
2023-05-21T10:48:00.259Z,2.25
2023-05-21T10:50:45.676Z,2.60
2023-05-21T10:53:30.536Z,2.42
2023-05-21T10:56:06.723Z,2.88
2023-05-21T10:58:39.104Z,2.70
2023-05-21T11:01:05.882Z,2.83
2023-05-21T11:03:35.762Z,3.15
2023-05-21T11:06:06.338Z,2.47
2023-05-21T11:08:35.884Z,2.30
2023-05-21T11:11:03.458Z,2.37
2023-05-21T11:13:45.444Z,2.40
2023-05-21T11:16:15.731Z,2.50
2023-05-21T11:18:42.186Z,2.78
2023-05-21T11:21:12.680Z,2.38
2023-05-21T11:23:57.947Z,2.22
2023-05-21T11:26:26.973Z,2.33
2023-05-21T11:28:59.251Z,2.53
2023-05-21T11:31:26.906Z,2.42
2023-05-21T11:34:12.193Z,2.33
2023-05-21T11:36:39.299Z,2.53
2023-05-21T11:39:10.618Z,2.58
2023-05-21T11:41:55.850Z,2.20
2023-05-21T11:44:44.825Z,2.50
2023-05-21T11:47:12.401Z,2.05
2023-05-21T11:49:38.904Z,2.33
2023-05-21T11:52:06.332Z,2.33
2023-05-21T11:54:36.961Z,2.63
2023-05-21T11:57:07.409Z,2.72
2023-05-21T11:59:34.470Z,2.20
2023-05-21T12:02:01.946Z,2.17
2023-05-21T12:04:31.876Z,2.50
2023-05-21T12:06:58.742Z,2.53
2023-05-21T12:09:25.379Z,2.60
2023-05-21T12:11:51.910Z,2.70
2023-05-21T12:14:18.373Z,2.28
2023-05-21T12:16:44.924Z,2.38
2023-05-21T12:19:11.469Z,2.58
2023-05-21T12:21:38.091Z,2.85
2023-05-21T12:24:15.993Z,2.30
2023-05-21T12:26:44.496Z,2.15
2023-05-21T12:29:11.148Z,2.72
2023-05-21T12:32:01.326Z,2.58
2023-05-21T12:34:41.309Z,2.40
2023-05-21T12:39:37.899Z,2.45
2023-05-21T12:42:04.643Z,2.30
2023-05-21T12:44:31.308Z,2.50
2023-05-21T12:46:58.020Z,2.50
2023-05-21T12:49:39.306Z,2.60
2023-05-21T12:52:10.113Z,2.45
2023-05-21T12:54:37.671Z,2.42
2023-05-21T12:57:11.202Z,2.70
2023-05-21T12:59:47.793Z,2.65
2023-05-21T13:02:17.395Z,2.63
2023-05-21T13:04:44.064Z,2.42
2023-05-21T13:07:10.565Z,2.30
2023-05-21T13:09:37.165Z,2.80
2023-05-21T13:12:03.685Z,1.80
2023-05-21T13:14:30.168Z,2.22
2023-05-21T13:16:57.297Z,2.40
2023-05-21T13:19:23.746Z,2.20
2023-05-21T13:21:50.321Z,2.50
2023-05-21T13:24:16.772Z,2.20
2023-05-21T13:26:43.347Z,2.67
2023-05-21T13:29:09.982Z,2.78
2023-05-21T13:31:36.414Z,2.50
2023-05-21T13:34:05.440Z,2.70
2023-05-21T13:36:34.839Z,2.38
2023-05-21T13:39:01.380Z,2.25
2023-05-21T13:41:27.795Z,2.40
2023-05-21T13:44:00.057Z,2.33
2023-05-21T13:46:27.146Z,2.75
2023-05-21T13:48:53.689Z,2.45
2023-05-21T13:51:37.585Z,2.40
2023-05-21T13:54:05.375Z,2.47
2023-05-21T13:56:33.640Z,2.60
2023-05-21T13:59:01.607Z,3.25
2023-05-21T14:01:28.197Z,2.80
2023-05-21T14:03:54.835Z,3.17
2023-05-21T14:06:21.381Z,2.40
2023-05-21T14:08:47.988Z,2.25
2023-05-21T14:11:14.449Z,2.00
2023-05-21T14:13:41.304Z,2.08
2023-05-21T14:16:07.981Z,2.50
2023-05-21T14:18:34.466Z,2.30
2023-05-21T14:21:00.982Z,3.03
2023-05-21T14:23:27.438Z,2.15
2023-05-21T14:25:53.881Z,3.00
2023-05-21T14:28:20.428Z,2.60
2023-05-21T14:30:46.935Z,2.60
2023-05-21T14:33:13.565Z,2.78
2023-05-21T14:35:41.468Z,2.75
2023-05-21T14:38:09.975Z,2.58
2023-05-21T14:40:36.899Z,2.88
2023-05-21T14:43:03.424Z,3.00
2023-05-21T14:45:29.915Z,2.65
2023-05-21T14:47:56.360Z,2.72
2023-05-21T14:50:22.874Z,2.50
2023-05-21T14:52:49.472Z,2.80
2023-05-21T14:55:18.353Z,2.67
2023-05-21T14:57:45.115Z,2.27
2023-05-21T15:00:11.795Z,2.53
2023-05-21T15:02:38.423Z,2.22
2023-05-21T15:05:05.058Z,2.58
2023-05-21T15:07:31.498Z,2.90
2023-05-21T15:09:57.979Z,2.92
2023-05-21T15:12:24.465Z,2.55
2023-05-21T15:14:51.073Z,2.70
2023-05-21T15:17:17.532Z,2.70
2023-05-21T15:19:45.109Z,2.30
2023-05-21T15:22:11.524Z,2.72
2023-05-21T15:24:38.037Z,2.47
2023-05-21T15:27:04.668Z,2.72
2023-05-21T15:29:31.169Z,2.88
2023-05-21T15:31:58.369Z,2.70
2023-05-21T15:34:24.878Z,2.30
2023-05-21T15:36:51.328Z,2.67
2023-05-21T15:39:17.769Z,3.03
2023-05-21T15:41:44.245Z,2.88
2023-05-21T15:44:10.663Z,3.25
2023-05-21T15:46:37.247Z,3.33
2023-05-21T15:49:03.754Z,4.13
2023-05-21T15:51:30.719Z,2.95
2023-05-21T15:53:57.198Z,3.08
2023-05-21T15:56:23.656Z,3.33
2023-05-21T15:58:50.136Z,4.80
2023-05-21T16:01:18.688Z,4.35
2023-05-21T16:03:45.280Z,2.80
2023-05-21T16:06:11.833Z,2.33
2023-05-21T16:08:38.244Z,2.33
2023-05-21T16:11:04.780Z,2.25
2023-05-21T16:13:31.213Z,3.08
2023-05-21T16:16:01.582Z,2.85
2023-05-21T16:18:32.105Z,2.40
2023-05-21T16:23:25.246Z,2.47
2023-05-21T16:25:51.783Z,2.47
2023-05-21T16:28:18.424Z,2.35
2023-05-21T16:30:45.043Z,2.65
2023-05-21T16:33:12.452Z,2.35
2023-05-21T16:35:39.134Z,2.70
2023-05-21T16:38:07.713Z,2.50
2023-05-21T16:40:34.195Z,2.85
2023-05-21T16:43:02.071Z,2.35
2023-05-21T16:45:34.702Z,2.60
2023-05-21T16:48:01.316Z,2.55
2023-05-21T16:50:27.780Z,3.03
2023-05-21T16:52:59.152Z,2.63
2023-05-21T16:55:25.650Z,2.55
2023-05-21T16:57:52.107Z,2.60
2023-05-21T17:00:18.636Z,2.70
2023-05-21T17:02:45.146Z,2.42
2023-05-21T17:05:11.626Z,2.78
2023-05-21T17:07:38.880Z,2.50
2023-05-21T17:10:07.539Z,2.50
2023-05-21T17:12:34.011Z,3.17
2023-05-21T17:15:00.683Z,2.42
2023-05-21T17:17:27.147Z,2.30
2023-05-21T17:19:53.880Z,2.58
2023-05-21T17:22:20.654Z,2.97
2023-05-21T17:24:47.491Z,2.40
2023-05-21T17:27:13.973Z,2.50
2023-05-21T17:29:40.465Z,2.67
2023-05-21T17:32:06.958Z,2.47
2023-05-21T17:34:33.458Z,2.63
2023-05-21T17:36:59.963Z,2.33
2023-05-21T17:39:26.374Z,2.28
2023-05-21T17:41:53.024Z,2.42
2023-05-21T17:44:19.607Z,2.60
2023-05-21T17:46:46.502Z,2.80
2023-05-21T17:49:13.004Z,2.60
2023-05-21T17:51:40.722Z,2.88
2023-05-21T17:54:08.208Z,2.80
2023-05-21T17:56:39.020Z,2.63
2023-05-21T18:01:33.398Z,3.03
2023-05-21T18:03:59.964Z,2.38
2023-05-21T18:06:26.396Z,2.63
2023-05-21T18:08:52.847Z,2.50
2023-05-21T18:11:19.452Z,2.38
2023-05-21T18:13:45.901Z,2.38
2023-05-21T18:16:12.350Z,2.17
2023-05-21T18:18:38.819Z,2.53
2023-05-21T18:21:05.303Z,2.60
2023-05-21T18:23:31.866Z,2.72
2023-05-21T18:25:58.308Z,2.22
2023-05-21T18:28:24.835Z,2.30
2023-05-21T18:30:51.295Z,2.13
2023-05-21T18:33:17.927Z,2.03
2023-05-21T18:35:44.617Z,2.45
2023-05-21T18:38:11.199Z,2.47
2023-05-21T18:40:38.127Z,2.28
2023-05-21T18:43:06.411Z,2.40
2023-05-21T18:45:33.161Z,2.42
2023-05-21T18:47:59.844Z,2.30
2023-05-21T18:50:26.308Z,2.17
2023-05-21T18:52:53.823Z,2.33
2023-05-21T18:55:20.349Z,3.13
2023-05-21T18:57:46.763Z,2.05
2023-05-21T19:00:13.526Z,2.60
2023-05-21T19:02:40.326Z,2.60
2023-05-21T19:05:07.489Z,2.45
2023-05-21T19:07:34.049Z,2.45
2023-05-21T19:10:00.533Z,2.13
2023-05-21T19:12:27.246Z,2.50
2023-05-21T19:14:53.652Z,2.30
2023-05-21T19:17:20.163Z,2.42
2023-05-21T19:19:46.750Z,2.50
2023-05-21T19:22:13.260Z,2.38
2023-05-21T19:24:41.663Z,2.60
2023-05-21T19:27:08.084Z,2.50
2023-05-21T19:29:34.664Z,3.33
2023-05-21T19:32:01.312Z,2.50
2023-05-21T19:34:27.994Z,2.60
2023-05-21T19:36:54.557Z,2.50
2023-05-21T19:39:21.207Z,2.17
2023-05-21T19:41:47.759Z,2.30
2023-05-21T19:44:14.233Z,2.53
2023-05-21T19:46:40.713Z,2.70
2023-05-21T19:49:07.465Z,2.50
2023-05-21T19:51:33.942Z,2.30
2023-05-21T19:54:00.522Z,2.03
2023-05-21T19:56:27.128Z,2.08
2023-05-21T19:58:53.561Z,2.40
2023-05-21T20:01:20.043Z,2.22
2023-05-21T20:03:46.676Z,2.55
2023-05-21T20:06:15.400Z,2.35
2023-05-21T20:08:42.104Z,2.33
2023-05-21T20:11:08.567Z,2.50
2023-05-21T20:13:35.020Z,2.65
2023-05-21T20:16:01.497Z,2.72
2023-05-21T20:18:27.920Z,2.80
2023-05-21T20:20:55.228Z,2.40
2023-05-21T20:23:21.741Z,2.10
2023-05-21T20:25:48.256Z,2.70
2023-05-21T20:28:14.758Z,2.35
2023-05-21T20:30:54.492Z,2.38
2023-05-21T20:33:21.108Z,2.40
2023-05-21T20:35:47.615Z,2.75
2023-05-21T20:38:15.952Z,2.60
2023-05-21T20:40:43.351Z,2.60
2023-05-21T20:43:12.077Z,2.95
2023-05-21T20:45:39.470Z,2.72
2023-05-21T20:48:06.548Z,2.70
2023-05-21T20:50:34.764Z,2.15
2023-05-21T20:53:01.903Z,2.53
2023-05-21T20:55:28.338Z,2.53
2023-05-21T20:57:54.830Z,2.58
2023-05-21T21:00:21.331Z,2.30
2023-05-21T21:02:47.827Z,2.40
2023-05-21T21:05:14.415Z,2.35
2023-05-21T21:07:41.852Z,3.40
2023-05-21T21:10:08.641Z,2.42
2023-05-21T21:12:35.075Z,2.20
2023-05-21T21:15:01.556Z,3.17
2023-05-21T21:17:28.111Z,2.33
2023-05-21T21:19:54.720Z,2.58
2023-05-21T21:22:22.602Z,2.67
2023-05-21T21:24:49.038Z,2.58
2023-05-21T21:27:15.581Z,2.67
2023-05-21T21:29:42.044Z,2.17
2023-05-21T21:32:08.564Z,2.65
2023-05-21T21:34:35.062Z,2.58
2023-05-21T21:37:01.508Z,2.42
2023-05-21T21:39:28.107Z,2.47
2023-05-21T21:41:54.616Z,2.67
2023-05-21T21:44:21.214Z,2.90
2023-05-21T21:46:48.002Z,2.22
2023-05-21T21:49:17.130Z,2.45
2023-05-21T21:51:48.472Z,2.85
2023-05-21T21:54:14.910Z,2.30
2023-05-21T21:56:41.407Z,2.42
2023-05-21T21:59:07.881Z,2.40
2023-05-21T22:01:35.715Z,2.10
2023-05-21T22:04:02.413Z,2.78
2023-05-21T22:06:28.877Z,3.42
2023-05-21T22:08:55.512Z,2.65
2023-05-21T22:11:22.791Z,2.60
2023-05-21T22:13:49.263Z,2.92
2023-05-21T22:16:15.804Z,3.00
2023-05-21T22:18:42.410Z,3.20
2023-05-21T22:21:10.188Z,2.38
2023-05-21T22:23:37.882Z,2.35
2023-05-21T22:26:04.596Z,2.40
2023-05-21T22:28:31.041Z,3.08
2023-05-21T22:30:58.175Z,2.78
2023-05-21T22:33:24.797Z,2.70
2023-05-21T22:35:51.252Z,2.60
2023-05-21T22:38:18.890Z,2.47
2023-05-21T22:40:45.415Z,2.40
2023-05-21T22:43:11.888Z,3.20
2023-05-21T22:45:38.441Z,2.50
2023-05-21T22:48:08.493Z,3.15
2023-05-21T22:50:35.298Z,2.80
2023-05-21T22:53:01.771Z,2.88
2023-05-21T22:55:30.502Z,2.72
2023-05-21T22:57:57.002Z,2.95
2023-05-21T23:00:23.508Z,3.30
2023-05-21T23:02:52.235Z,2.33
2023-05-21T23:05:20.468Z,2.50
2023-05-21T23:07:46.988Z,2.78
2023-05-21T23:10:13.422Z,3.10
2023-05-21T23:12:42.734Z,3.10
2023-05-21T23:15:09.878Z,3.22
2023-05-21T23:17:36.686Z,2.95
2023-05-21T23:20:03.498Z,3.03
2023-05-21T23:22:29.940Z,3.38
2023-05-21T23:24:56.354Z,3.05
2023-05-21T23:27:22.783Z,3.50
2023-05-21T23:29:49.236Z,3.20
2023-05-21T23:32:16.009Z,2.83
2023-05-21T23:34:42.865Z,2.80
2023-05-21T23:37:09.450Z,2.85
2023-05-21T23:39:36.744Z,2.95
2023-05-21T23:42:03.216Z,2.92
2023-05-21T23:44:29.676Z,3.13
2023-05-21T23:46:56.085Z,3.03
2023-05-21T23:49:22.534Z,3.40
2023-05-21T23:51:50.763Z,3.67
2023-05-21T23:54:17.410Z,3.00
2023-05-21T23:56:43.897Z,2.58
2023-05-21T23:59:10.678Z,2.72
